Isle Royale Queen III — WDF8600 — position and weather

sailwx.info

Track history (hours):
 
Tides and Currents Weather Stations Pressure Air Temp Water Temp Dewpoint Dewpoint Depression Visibility Wind Speed Wind Dir Waves Ship Positions

Isle Royale Queen III

Owner: Pure Michigan Boat Cruises, Munising, MI. More information available from US FCC via Universal Licensing System and Coast Guard Vessel Documentation Center.

Last reported at 2017-Sep-20 23:57 UTC. Time now 2017-Sep-24 10:20 UTC.
Position N 45°51' W 084°37'.

Length 24 m.

Type: Passenger vessel. MMSI: 367496570.

Date/timePositionNaut miles runAvg speedWind from/ knotsBaromVisibWave heightAir tempDewpointWater temp
2017-Sep-20 23:57N 45°51' W 084°37'2 4.8
2017-Sep-20 23:30N 45°50' W 084°40'2 4.0
2017-Sep-20 23:00N 45°49' W 084°42'4 8.3
2017-Sep-20 22:30N 45°51' W 084°37'0 0.0
2017-Sep-20 00:07N 45°51' W 084°37'1 4.2
2017-Sep-19 23:59N 45°50' W 084°37'4 8.5
2017-Sep-19 23:30N 45°49' W 084°43'2 3.7
2017-Sep-19 23:00N 45°48' W 084°41'3 0.2
2017-Sep-19 00:15N 45°51' W 084°37'0 0.9
2017-Sep-19 00:00N 45°51' W 084°37'4 8.0
2017-Sep-18 23:29N 45°49' W 084°42'1 2.3
2017-Sep-18 22:59N 45°49' W 084°41'4 0.1
2017-Sep-17 00:39N 45°51' W 084°37'0 0.0
2017-Sep-17 00:30N 45°51' W 084°37'3 4.9
2017-Sep-16 23:58N 45°50' W 084°40'3 5.8
2017-Sep-16 23:29N 45°48' W 084°44'5 9.1
2017-Sep-16 22:58N 45°51' W 084°38'1 0.4
2017-Sep-16 20:32N 45°51' W 084°37'0 1.1
2017-Sep-16 20:28N 45°51' W 084°37'4 8.2
2017-Sep-16 20:00N 45°53' W 084°33'9 2.7
2017-Sep-16 16:46N 45°60' W 084°24'1 1.2
2017-Sep-16 16:15N 45°60' W 084°25'1 1.6
2017-Sep-16 15:50N 46°00' W 084°26'0 0.0
2017-Sep-16 15:26N 46°00' W 084°26'0 0.0
2017-Sep-16 14:56N 46°00' W 084°26'4 6.4
2017-Sep-16 14:21N 45°57' W 084°28'4 9.2
2017-Sep-16 13:56N 45°54' W 084°32'5 9.2
2017-Sep-16 13:26N 45°51' W 084°36'0 0.0
2017-Sep-16 01:50N 45°51' W 084°37'2 5.5
2017-Sep-16 01:30N 45°51' W 084°40'3 1.9
2017-Sep-16 00:10N 45°52' W 084°43'1 9.3
2017-Sep-16 00:00N 45°51' W 084°41'2 4.7
2017-Sep-15 23:30N 45°49' W 084°44'2 3.1
2017-Sep-15 22:58N 45°50' W 084°41'3 1.5
2017-Sep-15 21:18N 45°52' W 084°43'0 0.0
2017-Sep-15 20:47N 45°52' W 084°43'0 0.0
2017-Sep-15 01:12N 45°52' W 084°43'2 9.2
2017-Sep-15 00:58N 45°51' W 084°40'2 3.9
2017-Sep-15 00:22N 45°51' W 084°37'2 5.6
2017-Sep-14 23:56N 45°50' W 084°40'3 6.0
2017-Sep-14 23:29N 45°49' W 084°44'4 8.0
2017-Sep-14 23:00N 45°49' W 084°38'2 0.1
2017-Sep-14 00:34N 45°51' W 084°37'0 0.1
2017-Sep-14 00:30N 45°51' W 084°37'4 8.1
2017-Sep-13 23:59N 45°49' W 084°43'1 1.5
2017-Sep-13 23:30N 45°50' W 084°42'3 3.0
2017-Sep-13 22:19N 45°51' W 084°37'0 0.0
2017-Sep-13 00:49N 45°51' W 084°37'1 3.3
2017-Sep-13 00:30N 45°51' W 084°38'4 8.3
2017-Sep-13 00:00N 45°49' W 084°44'5 6.0
2017-Sep-12 23:09N 45°51' W 084°37'0 0.0
2017-Sep-12 22:57N 45°51' W 084°37'  
Track history (hours):
 
Tides and Currents Weather Stations Pressure Air Temp Water Temp Dewpoint Dewpoint Depression Visibility Wind Speed Wind Dir Waves Ship Positions

Isle Royale Queen III

Owner: Pure Michigan Boat Cruises, Munising, MI. More information available from US FCC via Universal Licensing System and Coast Guard Vessel Documentation Center.

Last reported at 2017-Sep-20 23:57 UTC. Time now 2017-Sep-24 10:20 UTC.
Position N 45°51' W 084°37'.

Length 24 m.

Type: Passenger vessel. MMSI: 367496570.

Date/timePositionNaut miles runAvg speedWind from/ knotsBaromVisibWave heightAir tempDewpointWater temp
2017-Sep-20 23:57N 45°51' W 084°37'2 4.8
2017-Sep-20 23:30N 45°50' W 084°40'2 4.0
2017-Sep-20 23:00N 45°49' W 084°42'4 8.3
2017-Sep-20 22:30N 45°51' W 084°37'0 0.0
2017-Sep-20 00:07N 45°51' W 084°37'1 4.2
2017-Sep-19 23:59N 45°50' W 084°37'4 8.5
2017-Sep-19 23:30N 45°49' W 084°43'2 3.7
2017-Sep-19 23:00N 45°48' W 084°41'3 0.2
2017-Sep-19 00:15N 45°51' W 084°37'0 0.9
2017-Sep-19 00:00N 45°51' W 084°37'4 8.0
2017-Sep-18 23:29N 45°49' W 084°42'1 2.3
2017-Sep-18 22:59N 45°49' W 084°41'4 0.1
2017-Sep-17 00:39N 45°51' W 084°37'0 0.0
2017-Sep-17 00:30N 45°51' W 084°37'3 4.9
2017-Sep-16 23:58N 45°50' W 084°40'3 5.8
2017-Sep-16 23:29N 45°48' W 084°44'5 9.1
2017-Sep-16 22:58N 45°51' W 084°38'1 0.4
2017-Sep-16 20:32N 45°51' W 084°37'0 1.1
2017-Sep-16 20:28N 45°51' W 084°37'4 8.2
2017-Sep-16 20:00N 45°53' W 084°33'9 2.7
2017-Sep-16 16:46N 45°60' W 084°24'1 1.2
2017-Sep-16 16:15N 45°60' W 084°25'1 1.6
2017-Sep-16 15:50N 46°00' W 084°26'0 0.0
2017-Sep-16 15:26N 46°00' W 084°26'0 0.0
2017-Sep-16 14:56N 46°00' W 084°26'4 6.4
2017-Sep-16 14:21N 45°57' W 084°28'4 9.2
2017-Sep-16 13:56N 45°54' W 084°32'5 9.2
2017-Sep-16 13:26N 45°51' W 084°36'0 0.0
2017-Sep-16 01:50N 45°51' W 084°37'2 5.5
2017-Sep-16 01:30N 45°51' W 084°40'3 1.9
2017-Sep-16 00:10N 45°52' W 084°43'1 9.3
2017-Sep-16 00:00N 45°51' W 084°41'2 4.7
2017-Sep-15 23:30N 45°49' W 084°44'2 3.1
2017-Sep-15 22:58N 45°50' W 084°41'3 1.5
2017-Sep-15 21:18N 45°52' W 084°43'0 0.0
2017-Sep-15 20:47N 45°52' W 084°43'0 0.0
2017-Sep-15 01:12N 45°52' W 084°43'2 9.2
2017-Sep-15 00:58N 45°51' W 084°40'2 3.9
2017-Sep-15 00:22N 45°51' W 084°37'2 5.6
2017-Sep-14 23:56N 45°50' W 084°40'3 6.0
2017-Sep-14 23:29N 45°49' W 084°44'4 8.0
2017-Sep-14 23:00N 45°49' W 084°38'2 0.1
2017-Sep-14 00:34N 45°51' W 084°37'0 0.1
2017-Sep-14 00:30N 45°51' W 084°37'4 8.1
2017-Sep-13 23:59N 45°49' W 084°43'1 1.5
2017-Sep-13 23:30N 45°50' W 084°42'3 3.0
2017-Sep-13 22:19N 45°51' W 084°37'0 0.0
2017-Sep-13 00:49N 45°51' W 084°37'1 3.3
2017-Sep-13 00:30N 45°51' W 084°38'4 8.3
2017-Sep-13 00:00N 45°49' W 084°44'5 6.0
2017-Sep-12 23:09N 45°51' W 084°37'0 0.0
2017-Sep-12 22:57N 45°51' W 084°37'  

Dump ship's entire track history